sensor_id;sensor_type;location;lat;lon;timestamp;pressure;altitude;pressure_sealevel;temperature;humidity
10978;BME280;5542;48.272;10.794;2023-04-03T00:01:33;96272.31;;;3.57;71.53
10978;BME280;5542;48.272;10.794;2023-04-03T00:04:00;96269.03;;;3.63;72.26
10978;BME280;5542;48.272;10.794;2023-04-03T00:06:27;96268.69;;;3.66;72.53
10978;BME280;5542;48.272;10.794;2023-04-03T00:08:54;96272.72;;;3.69;73.30
10978;BME280;5542;48.272;10.794;2023-04-03T00:11:21;96272.22;;;3.73;72.97
10978;BME280;5542;48.272;10.794;2023-04-03T00:13:48;96276.13;;;3.69;73.21
10978;BME280;5542;48.272;10.794;2023-04-03T00:16:14;96274.34;;;3.70;73.26
10978;BME280;5542;48.272;10.794;2023-04-03T00:18:41;96279.44;;;3.63;72.11
10978;BME280;5542;48.272;10.794;2023-04-03T00:21:09;96272.31;;;3.57;71.33
10978;BME280;5542;48.272;10.794;2023-04-03T00:23:36;96264.44;;;3.42;70.42
10978;BME280;5542;48.272;10.794;2023-04-03T00:26:04;96266.06;;;3.35;70.80
10978;BME280;5542;48.272;10.794;2023-04-03T00:28:30;96273.19;;;3.02;70.52
10978;BME280;5542;48.272;10.794;2023-04-03T00:30:57;96274.06;;;2.78;71.85
10978;BME280;5542;48.272;10.794;2023-04-03T00:33:24;96276.53;;;2.63;72.76
10978;BME280;5542;48.272;10.794;2023-04-03T00:35:51;96275.25;;;2.59;73.90
10978;BME280;5542;48.272;10.794;2023-04-03T00:38:18;96273.97;;;2.39;73.30
10978;BME280;5542;48.272;10.794;2023-04-03T00:40:47;96278.50;;;2.37;73.16
10978;BME280;5542;48.272;10.794;2023-04-03T00:43:17;96275.28;;;2.35;73.50
10978;BME280;5542;48.272;10.794;2023-04-03T00:45:46;96277.06;;;2.26;74.65
10978;BME280;5542;48.272;10.794;2023-04-03T00:48:15;96275.63;;;2.23;74.53
10978;BME280;5542;48.272;10.794;2023-04-03T00:50:44;96272.66;;;2.26;75.27
10978;BME280;5542;48.272;10.794;2023-04-03T00:53:13;96259.53;;;2.36;75.73
10978;BME280;5542;48.272;10.794;2023-04-03T00:55:43;96273.97;;;2.30;75.15
10978;BME280;5542;48.272;10.794;2023-04-03T00:58:10;96264.56;;;2.29;75.25
10978;BME280;5542;48.272;10.794;2023-04-03T01:00:43;96268.13;;;2.20;74.34
10978;BME280;5542;48.272;10.794;2023-04-03T01:03:11;96271.06;;;2.17;74.72
10978;BME280;5542;48.272;10.794;2023-04-03T01:05:37;96263.94;;;2.19;75.33
10978;BME280;5542;48.272;10.794;2023-04-03T01:08:05;96263.41;;;2.32;73.90
10978;BME280;5542;48.272;10.794;2023-04-03T01:10:31;96258.41;;;2.14;74.28
10978;BME280;5542;48.272;10.794;2023-04-03T01:12:59;96263.59;;;2.14;74.52
10978;BME280;5542;48.272;10.794;2023-04-03T01:15:26;96262.28;;;2.18;73.68
10978;BME280;5542;48.272;10.794;2023-04-03T01:17:57;96266.22;;;2.14;72.73
10978;BME280;5542;48.272;10.794;2023-04-03T01:20:44;96259.38;;;2.05;72.20
10978;BME280;5542;48.272;10.794;2023-04-03T01:23:25;96259.38;;;1.97;71.56
10978;BME280;5542;48.272;10.794;2023-04-03T01:25:56;96261.81;;;1.90;72.65
10978;BME280;5542;48.272;10.794;2023-04-03T01:28:25;96255.66;;;1.99;73.06
10978;BME280;5542;48.272;10.794;2023-04-03T01:30:58;96263.78;;;2.04;73.36
10978;BME280;5542;48.272;10.794;2023-04-03T01:33:28;96267.50;;;2.10;72.01
10978;BME280;5542;48.272;10.794;2023-04-03T01:35:55;96261.31;;;2.03;72.08
10978;BME280;5542;48.272;10.794;2023-04-03T01:38:21;96264.25;;;1.92;72.28
10978;BME280;5542;48.272;10.794;2023-04-03T01:40:48;96261.47;;;1.93;73.69
10978;BME280;5542;48.272;10.794;2023-04-03T01:43:14;96266.38;;;2.04;72.16
10978;BME280;5542;48.272;10.794;2023-04-03T01:45:41;96265.53;;;1.96;72.53
10978;BME280;5542;48.272;10.794;2023-04-03T01:48:07;96263.59;;;1.82;72.63
10978;BME280;5542;48.272;10.794;2023-04-03T01:50:35;96265.19;;;1.99;72.30
10978;BME280;5542;48.272;10.794;2023-04-03T01:53:02;96257.75;;;1.96;72.83
10978;BME280;5542;48.272;10.794;2023-04-03T01:55:28;96265.53;;;2.04;72.38
10978;BME280;5542;48.272;10.794;2023-04-03T01:57:55;96257.94;;;2.19;71.54
10978;BME280;5542;48.272;10.794;2023-04-03T02:00:22;96261.97;;;2.05;71.97
10978;BME280;5542;48.272;10.794;2023-04-03T02:02:48;96255.16;;;1.88;72.87
10978;BME280;5542;48.272;10.794;2023-04-03T02:05:15;96262.16;;;1.95;73.08
10978;BME280;5542;48.272;10.794;2023-04-03T02:07:43;96265.19;;;1.99;72.01
10978;BME280;5542;48.272;10.794;2023-04-03T02:10:10;96262.81;;;2.14;71.21
10978;BME280;5542;48.272;10.794;2023-04-03T02:12:36;96262.94;;;2.12;71.77
10978;BME280;5542;48.272;10.794;2023-04-03T02:15:04;96267.81;;;2.07;72.00
10978;BME280;5542;48.272;10.794;2023-04-03T02:17:31;96258.25;;;1.91;71.89
10978;BME280;5542;48.272;10.794;2023-04-03T02:19:57;96259.84;;;1.92;71.31
10978;BME280;5542;48.272;10.794;2023-04-03T02:22:24;96257.91;;;1.86;72.53
10978;BME280;5542;48.272;10.794;2023-04-03T02:24:52;96260.66;;;1.76;72.73
10978;BME280;5542;48.272;10.794;2023-04-03T02:27:18;96260.66;;;1.68;73.75
10978;BME280;5542;48.272;10.794;2023-04-03T02:29:45;96267.50;;;1.86;73.09
10978;BME280;5542;48.272;10.794;2023-04-03T02:32:11;96264.75;;;1.95;72.68
10978;BME280;5542;48.272;10.794;2023-04-03T02:34:38;96257.44;;;1.91;72.14
10978;BME280;5542;48.272;10.794;2023-04-03T02:37:04;96258.41;;;1.98;71.79
10978;BME280;5542;48.272;10.794;2023-04-03T02:39:31;96258.56;;;1.88;73.12
10978;BME280;5542;48.272;10.794;2023-04-03T02:41:59;96264.22;;;1.84;74.44
10978;BME280;5542;48.272;10.794;2023-04-03T02:44:25;96256.44;;;1.84;74.42
10978;BME280;5542;48.272;10.794;2023-04-03T02:46:52;96262.91;;;1.79;74.23
10978;BME280;5542;48.272;10.794;2023-04-03T02:49:19;96259.38;;;1.89;74.16
10978;BME280;5542;48.272;10.794;2023-04-03T02:51:45;96262.63;;;1.91;73.79
10978;BME280;5542;48.272;10.794;2023-04-03T02:54:13;96267.31;;;1.87;74.16
10978;BME280;5542;48.272;10.794;2023-04-03T02:56:39;96260.03;;;1.91;74.92
10978;BME280;5542;48.272;10.794;2023-04-03T02:59:07;96267.47;;;1.94;74.40
10978;BME280;5542;48.272;10.794;2023-04-03T03:01:34;96258.56;;;1.88;74.57
10978;BME280;5542;48.272;10.794;2023-04-03T03:04:01;96254.03;;;1.82;75.48
10978;BME280;5542;48.272;10.794;2023-04-03T03:06:28;96260.66;;;1.93;74.57
10978;BME280;5542;48.272;10.794;2023-04-03T03:08:54;96264.75;;;1.95;74.64
10978;BME280;5542;48.272;10.794;2023-04-03T03:11:21;96260.16;;;1.89;75.33
10978;BME280;5542;48.272;10.794;2023-04-03T03:13:47;96261.31;;;1.87;74.92
10978;BME280;5542;48.272;10.794;2023-04-03T03:16:15;96257.75;;;1.88;75.13
10978;BME280;5542;48.272;10.794;2023-04-03T03:18:42;96256.16;;;1.95;75.29
10978;BME280;5542;48.272;10.794;2023-04-03T03:21:09;96256.13;;;2.11;74.65
10978;BME280;5542;48.272;10.794;2023-04-03T03:23:36;96264.25;;;2.00;74.69
10978;BME280;5542;48.272;10.794;2023-04-03T03:26:05;96257.91;;;1.86;74.68
10978;BME280;5542;48.272;10.794;2023-04-03T03:28:32;96255.97;;;1.88;75.04
10978;BME280;5542;48.272;10.794;2023-04-03T03:30:59;96254.81;;;1.83;75.71
10978;BME280;5542;48.272;10.794;2023-04-03T03:33:27;96263.25;;;1.85;74.81
10978;BME280;5542;48.272;10.794;2023-04-03T03:35:54;96251.28;;;1.92;75.47
10978;BME280;5542;48.272;10.794;2023-04-03T03:38:21;96256.94;;;1.79;75.49
10978;BME280;5542;48.272;10.794;2023-04-03T03:40:49;96249.81;;;2.05;74.25
10978;BME280;5542;48.272;10.794;2023-04-03T03:43:16;96248.66;;;1.84;75.23
10978;BME280;5542;48.272;10.794;2023-04-03T03:45:43;96253.53;;;1.87;74.86
10978;BME280;5542;48.272;10.794;2023-04-03T03:48:10;96255.47;;;1.76;75.08
10978;BME280;5542;48.272;10.794;2023-04-03T03:50:38;96251.25;;;1.67;75.71
10978;BME280;5542;48.272;10.794;2023-04-03T03:53:05;96266.00;;;1.67;76.66
10978;BME280;5542;48.272;10.794;2023-04-03T03:55:31;96254.31;;;1.79;76.15
10978;BME280;5542;48.272;10.794;2023-04-03T03:57:58;96256.78;;;1.81;76.28
10978;BME280;5542;48.272;10.794;2023-04-03T04:00:25;96258.56;;;1.88;76.52
10978;BME280;5542;48.272;10.794;2023-04-03T04:02:51;96267.94;;;1.73;76.36
10978;BME280;5542;48.272;10.794;2023-04-03T04:05:18;96267.13;;;1.64;76.27
10978;BME280;5542;48.272;10.794;2023-04-03T04:07:46;96263.59;;;1.82;76.81
10978;BME280;5542;48.272;10.794;2023-04-03T04:10:12;96265.50;;;1.63;77.18
10978;BME280;5542;48.272;10.794;2023-04-03T04:12:39;96264.22;;;1.75;77.15
10978;BME280;5542;48.272;10.794;2023-04-03T04:15:06;96268.91;;;1.72;77.27
10978;BME280;5542;48.272;10.794;2023-04-03T04:17:33;96262.59;;;1.74;77.38
10978;BME280;5542;48.272;10.794;2023-04-03T04:20:00;96269.75;;;1.89;76.65
10978;BME280;5542;48.272;10.794;2023-04-03T04:22:28;96271.34;;;1.90;75.69
10978;BME280;5542;48.272;10.794;2023-04-03T04:24:55;96269.25;;;1.85;76.26
10978;BME280;5542;48.272;10.794;2023-04-03T04:27:22;96266.00;;;1.83;76.97
10978;BME280;5542;48.272;10.794;2023-04-03T04:29:48;96265.84;;;1.76;76.32
10978;BME280;5542;48.272;10.794;2023-04-03T04:32:15;96272.00;;;1.67;77.25
10978;BME280;5542;48.272;10.794;2023-04-03T04:34:41;96268.13;;;1.71;77.69
10978;BME280;5542;48.272;10.794;2023-04-03T04:37:08;96272.81;;;1.68;77.99
10978;BME280;5542;48.272;10.794;2023-04-03T04:39:35;96278.16;;;1.74;78.13
10978;BME280;5542;48.272;10.794;2023-04-03T04:42:03;96280.38;;;1.61;78.48
10978;BME280;5542;48.272;10.794;2023-04-03T04:44:29;96273.78;;;1.67;77.81
10978;BME280;5542;48.272;10.794;2023-04-03T04:46:56;96276.38;;;1.67;78.02
10978;BME280;5542;48.272;10.794;2023-04-03T04:49:22;96275.56;;;1.66;79.01
10978;BME280;5542;48.272;10.794;2023-04-03T04:51:49;96276.69;;;1.64;78.51
10978;BME280;5542;48.272;10.794;2023-04-03T04:54:16;96278.94;;;1.59;78.97
10978;BME280;5542;48.272;10.794;2023-04-03T04:56:42;96270.50;;;1.57;79.30
10978;BME280;5542;48.272;10.794;2023-04-03T04:59:10;96274.09;;;1.64;79.33
10978;BME280;5542;48.272;10.794;2023-04-03T05:01:37;96276.50;;;1.65;79.13
10978;BME280;5542;48.272;10.794;2023-04-03T05:04:03;96276.38;;;1.67;79.24
10978;BME280;5542;48.272;10.794;2023-04-03T05:06:30;96277.78;;;1.61;78.95
10978;BME280;5542;48.272;10.794;2023-04-03T05:08:57;96280.72;;;1.58;78.56
10978;BME280;5542;48.272;10.794;2023-04-03T05:11:24;96277.47;;;1.56;79.17
10978;BME280;5542;48.272;10.794;2023-04-03T05:13:50;96282.50;;;1.58;78.91
10978;BME280;5542;48.272;10.794;2023-04-03T05:16:18;96284.28;;;1.57;78.48
10978;BME280;5542;48.272;10.794;2023-04-03T05:18:45;96283.81;;;1.62;79.24
10978;BME280;5542;48.272;10.794;2023-04-03T05:21:11;96286.59;;;1.76;79.49
10978;BME280;5542;48.272;10.794;2023-04-03T05:23:38;96278.31;;;1.73;78.74
10978;BME280;5542;48.272;10.794;2023-04-03T05:26:04;96285.59;;;1.69;78.72
10978;BME280;5542;48.272;10.794;2023-04-03T05:28:31;96285.09;;;1.66;78.72
10978;BME280;5542;48.272;10.794;2023-04-03T05:30:58;96284.13;;;1.59;79.49
10978;BME280;5542;48.272;10.794;2023-04-03T05:33:27;96285.09;;;1.58;79.89
10978;BME280;5542;48.272;10.794;2023-04-03T05:35:54;96288.00;;;1.54;80.66
10978;BME280;5542;48.272;10.794;2023-04-03T05:38:20;96292.75;;;1.67;79.34
10978;BME280;5542;48.272;10.794;2023-04-03T05:40:47;96297.44;;;1.80;79.02
10978;BME280;5542;48.272;10.794;2023-04-03T05:43:13;96295.19;;;1.77;79.79
10978;BME280;5542;48.272;10.794;2023-04-03T05:45:40;96296.41;;;1.57;79.20
10978;BME280;5542;48.272;10.794;2023-04-03T05:48:07;96295.00;;;1.62;79.77
10978;BME280;5542;48.272;10.794;2023-04-03T05:50:35;96297.91;;;1.67;80.04
10978;BME280;5542;48.272;10.794;2023-04-03T05:53:07;96298.91;;;1.66;79.23
10978;BME280;5542;48.272;10.794;2023-04-03T05:55:38;96294.50;;;1.75;78.84
10978;BME280;5542;48.272;10.794;2023-04-03T05:58:05;96297.59;;;1.70;79.03
10978;BME280;5542;48.272;10.794;2023-04-03T06:00:31;96299.50;;;1.60;78.43
10978;BME280;5542;48.272;10.794;2023-04-03T06:02:58;96299.81;;;1.49;79.89
10978;BME280;5542;48.272;10.794;2023-04-03T06:05:25;96300.78;;;1.48;80.53
10978;BME280;5542;48.272;10.794;2023-04-03T06:07:53;96303.38;;;1.48;80.15
10978;BME280;5542;48.272;10.794;2023-04-03T06:10:19;96306.31;;;1.53;80.43
10978;BME280;5542;48.272;10.794;2023-04-03T06:12:46;96303.47;;;1.81;78.38
10978;BME280;5542;48.272;10.794;2023-04-03T06:15:12;96301.13;;;1.61;78.98
10978;BME280;5542;48.272;10.794;2023-04-03T06:17:39;96301.25;;;1.51;80.22
10978;BME280;5542;48.272;10.794;2023-04-03T06:20:07;96307.81;;;1.72;79.10
10978;BME280;5542;48.272;10.794;2023-04-03T06:22:34;96306.69;;;1.74;79.83
10978;BME280;5542;48.272;10.794;2023-04-03T06:25:03;96307.97;;;1.78;79.59
10978;BME280;5542;48.272;10.794;2023-04-03T06:27:30;96309.03;;;1.51;79.94
10978;BME280;5542;48.272;10.794;2023-04-03T06:29:56;96309.88;;;1.60;80.43
10978;BME280;5542;48.272;10.794;2023-04-03T06:32:23;96308.44;;;1.66;79.96
10978;BME280;5542;48.272;10.794;2023-04-03T06:34:50;96317.06;;;1.74;80.19
10978;BME280;5542;48.272;10.794;2023-04-03T06:37:20;96309.16;;;1.92;79.54
10978;BME280;5542;48.272;10.794;2023-04-03T06:39:47;96311.59;;;1.86;78.54
10978;BME280;5542;48.272;10.794;2023-04-03T06:42:15;96315.31;;;1.91;78.07
10978;BME280;5542;48.272;10.794;2023-04-03T06:44:42;96309.59;;;1.79;78.75
10978;BME280;5542;48.272;10.794;2023-04-03T06:47:09;96318.66;;;1.67;80.13
10978;BME280;5542;48.272;10.794;2023-04-03T06:49:37;96317.72;;;1.76;81.03
10978;BME280;5542;48.272;10.794;2023-04-03T06:52:04;96315.44;;;1.90;79.91
10978;BME280;5542;48.272;10.794;2023-04-03T06:54:31;96324.91;;;2.07;79.16
10978;BME280;5542;48.272;10.794;2023-04-03T06:56:57;96326.84;;;1.97;79.02
10978;BME280;5542;48.272;10.794;2023-04-03T06:59:25;96322.28;;;1.99;78.74
10978;BME280;5542;48.272;10.794;2023-04-03T07:01:52;96330.53;;;1.94;79.09
10978;BME280;5542;48.272;10.794;2023-04-03T07:04:19;96335.53;;;1.79;79.30
10978;BME280;5542;48.272;10.794;2023-04-03T07:06:46;96337.19;;;1.81;79.58
10978;BME280;5542;48.272;10.794;2023-04-03T07:09:13;96335.41;;;1.89;79.97
10978;BME280;5542;48.272;10.794;2023-04-03T07:11:40;96338.50;;;2.01;79.07
10978;BME280;5542;48.272;10.794;2023-04-03T07:14:06;96338.38;;;2.11;78.25
10978;BME280;5542;48.272;10.794;2023-04-03T07:16:34;96339.50;;;2.00;78.46
10978;BME280;5542;48.272;10.794;2023-04-03T07:19:01;96347.59;;;2.05;77.99
10978;BME280;5542;48.272;10.794;2023-04-03T07:21:28;96352.28;;;1.93;78.74
10978;BME280;5542;48.272;10.794;2023-04-03T07:23:56;96347.25;;;1.92;78.88
10978;BME280;5542;48.272;10.794;2023-04-03T07:26:22;96344.69;;;2.00;78.55
10978;BME280;5542;48.272;10.794;2023-04-03T07:28:49;96352.97;;;2.12;78.98
10978;BME280;5542;48.272;10.794;2023-04-03T07:31:16;96344.69;;;2.33;78.15
10978;BME280;5542;48.272;10.794;2023-04-03T07:33:45;96345.66;;;2.31;77.36
10978;BME280;5542;48.272;10.794;2023-04-03T07:36:15;96351.50;;;2.25;78.59
10978;BME280;5542;48.272;10.794;2023-04-03T07:38:42;96346.81;;;2.37;77.43
10978;BME280;5542;48.272;10.794;2023-04-03T07:41:11;96351.84;;;2.39;77.63
10978;BME280;5542;48.272;10.794;2023-04-03T07:43:38;96351.84;;;2.39;77.35
10978;BME280;5542;48.272;10.794;2023-04-03T07:46:06;96356.72;;;2.66;76.68
10978;BME280;5542;48.272;10.794;2023-04-03T07:48:32;96354.78;;;2.68;76.63
10978;BME280;5542;48.272;10.794;2023-04-03T07:51:02;96354.91;;;2.75;76.67
10978;BME280;5542;48.272;10.794;2023-04-03T07:53:29;96357.38;;;2.76;75.41
10978;BME280;5542;48.272;10.794;2023-04-03T07:55:58;96363.19;;;2.87;75.35
10978;BME280;5542;48.272;10.794;2023-04-03T07:58:25;96360.78;;;2.85;75.25
10978;BME280;5542;48.272;10.794;2023-04-03T08:00:52;96356.88;;;2.73;75.64
10978;BME280;5542;48.272;10.794;2023-04-03T08:03:19;96361.53;;;2.94;74.30
10978;BME280;5542;48.272;10.794;2023-04-03T08:05:47;96361.59;;;2.86;74.77
10978;BME280;5542;48.272;10.794;2023-04-03T08:08:17;96361.22;;;2.89;75.06
10978;BME280;5542;48.272;10.794;2023-04-03T08:10:48;96372.22;;;3.23;74.45
10978;BME280;5542;48.272;10.794;2023-04-03T08:13:14;96365.94;;;3.10;72.77
10978;BME280;5542;48.272;10.794;2023-04-03T08:15:41;96376.66;;;2.98;74.15
10978;BME280;5542;48.272;10.794;2023-04-03T08:18:08;96372.56;;;3.12;74.21
10978;BME280;5542;48.272;10.794;2023-04-03T08:20:35;96373.41;;;3.04;71.84
10978;BME280;5542;48.272;10.794;2023-04-03T08:23:02;96382.16;;;3.03;72.85
10978;BME280;5542;48.272;10.794;2023-04-03T08:25:30;96372.91;;;3.09;72.27
10978;BME280;5542;48.272;10.794;2023-04-03T08:27:57;96377.94;;;3.11;72.62
10978;BME280;5542;48.272;10.794;2023-04-03T08:30:23;96374.53;;;3.10;72.61
10978;BME280;5542;48.272;10.794;2023-04-03T08:32:50;96388.00;;;3.14;73.05
10978;BME280;5542;48.272;10.794;2023-04-03T08:35:17;96377.63;;;3.05;71.75
10978;BME280;5542;48.272;10.794;2023-04-03T08:37:45;96379.75;;;2.94;72.06
10978;BME280;5542;48.272;10.794;2023-04-03T08:40:15;96385.25;;;3.07;71.57
10978;BME280;5542;48.272;10.794;2023-04-03T08:42:49;96385.25;;;3.15;71.89
10978;BME280;5542;48.272;10.794;2023-04-03T08:45:22;96386.16;;;3.30;70.96
10978;BME280;5542;48.272;10.794;2023-04-03T08:47:55;96385.25;;;3.15;70.45
10978;BME280;5542;48.272;10.794;2023-04-03T08:50:29;96390.25;;;3.25;70.59
10978;BME280;5542;48.272;10.794;2023-04-03T08:52:58;96382.94;;;3.28;70.25
10978;BME280;5542;48.272;10.794;2023-04-03T08:55:27;96388.94;;;3.37;71.06
10978;BME280;5542;48.272;10.794;2023-04-03T08:58:00;96383.53;;;3.47;69.29
10978;BME280;5542;48.272;10.794;2023-04-03T09:00:30;96392.34;;;3.38;69.43
10978;BME280;5542;48.272;10.794;2023-04-03T09:02:58;96387.38;;;3.59;67.22
10978;BME280;5542;48.272;10.794;2023-04-03T09:05:35;96395.16;;;3.67;67.50
10978;BME280;5542;48.272;10.794;2023-04-03T09:08:14;96389.19;;;3.50;68.29
10978;BME280;5542;48.272;10.794;2023-04-03T09:10:41;96393.09;;;3.54;67.63
10978;BME280;5542;48.272;10.794;2023-04-03T09:13:14;96390.94;;;3.66;66.36
10978;BME280;5542;48.272;10.794;2023-04-03T09:15:44;96396.47;;;3.63;66.74
10978;BME280;5542;48.272;10.794;2023-04-03T09:18:13;96393.16;;;3.77;66.91
10978;BME280;5542;48.272;10.794;2023-04-03T09:20:46;96390.88;;;3.82;67.09
10978;BME280;5542;48.272;10.794;2023-04-03T09:23:21;96389.72;;;3.85;65.76
10978;BME280;5542;48.272;10.794;2023-04-03T09:25:50;96386.16;;;3.86;68.63
10978;BME280;5542;48.272;10.794;2023-04-03T09:28:20;96378.38;;;4.09;68.38
10978;BME280;5542;48.272;10.794;2023-04-03T09:30:47;96389.69;;;4.24;64.96
10978;BME280;5542;48.272;10.794;2023-04-03T09:33:14;96387.00;;;4.09;64.88
10978;BME280;5542;48.272;10.794;2023-04-03T09:35:42;96383.16;;;4.28;63.94
10978;BME280;5542;48.272;10.794;2023-04-03T09:38:20;96381.94;;;4.39;61.10
10978;BME280;5542;48.272;10.794;2023-04-03T09:40:48;96381.41;;;4.21;63.34
10978;BME280;5542;48.272;10.794;2023-04-03T09:43:27;96387.69;;;4.26;64.88
10978;BME280;5542;48.272;10.794;2023-04-03T09:45:55;96379.84;;;4.34;65.19
10978;BME280;5542;48.272;10.794;2023-04-03T09:48:24;96377.72;;;4.38;63.78
10978;BME280;5542;48.272;10.794;2023-04-03T09:50:59;96371.44;;;4.24;63.70
10978;BME280;5542;48.272;10.794;2023-04-03T09:53:33;96377.75;;;4.30;63.09
10978;BME280;5542;48.272;10.794;2023-04-03T09:56:02;96380.84;;;4.33;61.99
10978;BME280;5542;48.272;10.794;2023-04-03T09:58:38;96384.72;;;4.38;63.22
10978;BME280;5542;48.272;10.794;2023-04-03T10:01:21;96380.84;;;4.33;63.45
10978;BME280;5542;48.272;10.794;2023-04-03T10:04:03;96375.41;;;4.12;63.83
10978;BME280;5542;48.272;10.794;2023-04-03T10:06:31;96385.66;;;3.82;64.54
10978;BME280;5542;48.272;10.794;2023-04-03T10:08:59;96386.16;;;3.86;65.55
10978;BME280;5542;48.272;10.794;2023-04-03T10:11:29;96384.66;;;3.92;65.17
10978;BME280;5542;48.272;10.794;2023-04-03T10:13:58;96380.97;;;3.78;65.59
10978;BME280;5542;48.272;10.794;2023-04-03T10:16:29;96377.88;;;3.74;66.10
10978;BME280;5542;48.272;10.794;2023-04-03T10:19:30;96382.06;;;3.83;66.02
10978;BME280;5542;48.272;10.794;2023-04-03T10:22:00;96377.94;;;3.97;65.26
10978;BME280;5542;48.272;10.794;2023-04-03T10:24:34;96377.13;;;3.97;64.13
10978;BME280;5542;48.272;10.794;2023-04-03T10:27:06;96368.22;;;3.91;61.94
10978;BME280;5542;48.272;10.794;2023-04-03T10:29:41;96378.47;;;3.93;62.75
10978;BME280;5542;48.272;10.794;2023-04-03T10:32:27;96374.25;;;3.92;62.92
10978;BME280;5542;48.272;10.794;2023-04-03T10:35:03;96383.44;;;4.02;64.61
10978;BME280;5542;48.272;10.794;2023-04-03T10:37:43;96379.56;;;3.98;62.88
10978;BME280;5542;48.272;10.794;2023-04-03T10:40:24;96374.25;;;3.92;64.56
10978;BME280;5542;48.272;10.794;2023-04-03T10:43:02;96384.75;;;3.75;65.89
10978;BME280;5542;48.272;10.794;2023-04-03T10:45:53;96377.13;;;3.97;66.37
10978;BME280;5542;48.272;10.794;2023-04-03T10:48:35;96380.44;;;3.91;65.29
10978;BME280;5542;48.272;10.794;2023-04-03T10:51:14;96380.94;;;3.86;65.01
10978;BME280;5542;48.272;10.794;2023-04-03T10:53:44;96382.22;;;3.90;65.87
10978;BME280;5542;48.272;10.794;2023-04-03T10:56:19;96385.63;;;3.91;65.27
10978;BME280;5542;48.272;10.794;2023-04-03T10:58:50;96387.78;;;3.79;66.79
10978;BME280;5542;48.272;10.794;2023-04-03T11:01:23;96378.06;;;3.73;67.66
10978;BME280;5542;48.272;10.794;2023-04-03T11:03:53;96381.34;;;3.67;67.84
10978;BME280;5542;48.272;10.794;2023-04-03T11:06:23;96376.28;;;3.73;68.32
10978;BME280;5542;48.272;10.794;2023-04-03T11:08:54;96369.56;;;3.79;67.99
10978;BME280;5542;48.272;10.794;2023-04-03T11:11:26;96366.31;;;3.85;66.27
10978;BME280;5542;48.272;10.794;2023-04-03T11:14:00;96360.25;;;3.93;65.21
10978;BME280;5542;48.272;10.794;2023-04-03T11:16:31;96358.47;;;4.16;62.79
10978;BME280;5542;48.272;10.794;2023-04-03T11:19:03;96364.66;;;4.15;63.91
10978;BME280;5542;48.272;10.794;2023-04-03T11:21:34;96355.47;;;4.04;63.52
10978;BME280;5542;48.272;10.794;2023-04-03T11:24:11;96363.94;;;3.98;64.99
10978;BME280;5542;48.272;10.794;2023-04-03T11:26:41;96358.53;;;4.08;64.49
10978;BME280;5542;48.272;10.794;2023-04-03T11:29:13;96350.69;;;4.39;62.57
10978;BME280;5542;48.272;10.794;2023-04-03T11:32:01;96361.84;;;4.25;61.90
10978;BME280;5542;48.272;10.794;2023-04-03T11:34:34;96360.28;;;4.39;63.16
10978;BME280;5542;48.272;10.794;2023-04-03T11:37:12;96348.25;;;4.38;62.94
10978;BME280;5542;48.272;10.794;2023-04-03T11:39:51;96360.81;;;4.34;63.58
10978;BME280;5542;48.272;10.794;2023-04-03T11:42:25;96357.16;;;4.43;62.82
10978;BME280;5542;48.272;10.794;2023-04-03T11:45:16;96359.47;;;4.61;63.52
10978;BME280;5542;48.272;10.794;2023-04-03T11:47:46;96349.88;;;4.61;59.35
10978;BME280;5542;48.272;10.794;2023-04-03T11:50:32;96358.34;;;4.55;59.61
10978;BME280;5542;48.272;10.794;2023-04-03T11:53:26;96352.34;;;4.55;61.72
10978;BME280;5542;48.272;10.794;2023-04-03T11:55:56;96352.75;;;4.44;62.35
10978;BME280;5542;48.272;10.794;2023-04-03T11:58:23;96356.00;;;4.46;62.29
10978;BME280;5542;48.272;10.794;2023-04-03T12:01:02;96352.19;;;4.33;61.65
10978;BME280;5542;48.272;10.794;2023-04-03T12:04:03;96356.41;;;4.34;62.35
10978;BME280;5542;48.272;10.794;2023-04-03T12:06:54;96344.31;;;4.42;61.26
10978;BME280;5542;48.272;10.794;2023-04-03T12:09:28;96350.81;;;4.23;61.83
10978;BME280;5542;48.272;10.794;2023-04-03T12:11:56;96339.34;;;4.09;62.36
10978;BME280;5542;48.272;10.794;2023-04-03T12:14:24;96343.50;;;4.18;61.99
10978;BME280;5542;48.272;10.794;2023-04-03T12:16:53;96343.22;;;4.13;61.38
10978;BME280;5542;48.272;10.794;2023-04-03T12:19:34;96344.66;;;4.16;61.62
10978;BME280;5542;48.272;10.794;2023-04-03T12:22:16;96333.78;;;4.12;60.48
10978;BME280;5542;48.272;10.794;2023-04-03T12:24:46;96344.53;;;4.09;60.41
10978;BME280;5542;48.272;10.794;2023-04-03T12:27:34;96333.84;;;4.04;59.96
10978;BME280;5542;48.272;10.794;2023-04-03T12:30:13;96342.06;;;4.16;59.86
10978;BME280;5542;48.272;10.794;2023-04-03T12:32:49;96334.47;;;4.06;60.33
10978;BME280;5542;48.272;10.794;2023-04-03T12:35:24;96340.66;;;4.05;60.94
10978;BME280;5542;48.272;10.794;2023-04-03T12:38:21;96338.00;;;4.13;60.41
10978;BME280;5542;48.272;10.794;2023-04-03T12:40:58;96334.13;;;4.09;60.65
10978;BME280;5542;48.272;10.794;2023-04-03T12:43:39;96332.44;;;4.16;60.69
10978;BME280;5542;48.272;10.794;2023-04-03T12:46:12;96329.84;;;4.16;59.51
10978;BME280;5542;48.272;10.794;2023-04-03T12:48:48;96324.34;;;4.11;59.12
10978;BME280;5542;48.272;10.794;2023-04-03T12:51:19;96318.44;;;4.17;58.02
10978;BME280;5542;48.272;10.794;2023-04-03T12:53:48;96313.50;;;4.22;58.43
10978;BME280;5542;48.272;10.794;2023-04-03T12:56:21;96314.31;;;4.46;55.58
10978;BME280;5542;48.272;10.794;2023-04-03T12:58:48;96317.53;;;4.33;58.72
10978;BME280;5542;48.272;10.794;2023-04-03T13:01:17;96310.38;;;4.50;55.83
10978;BME280;5542;48.272;10.794;2023-04-03T13:03:48;96315.13;;;4.46;56.06
10978;BME280;5542;48.272;10.794;2023-04-03T13:06:21;96314.56;;;4.74;54.78
10978;BME280;5542;48.272;10.794;2023-04-03T13:08:49;96308.97;;;4.62;56.39
10978;BME280;5542;48.272;10.794;2023-04-03T13:11:17;96311.81;;;4.75;54.45
10978;BME280;5542;48.272;10.794;2023-04-03T13:14:00;96310.44;;;4.79;54.73
10978;BME280;5542;48.272;10.794;2023-04-03T13:16:27;96303.97;;;4.75;52.76
10978;BME280;5542;48.272;10.794;2023-04-03T13:18:54;96305.38;;;4.63;54.38
10978;BME280;5542;48.272;10.794;2023-04-03T13:21:24;96308.66;;;4.80;54.58
10978;BME280;5542;48.272;10.794;2023-04-03T13:23:54;96306.88;;;4.95;54.51